X  Fermer Données météorologiques d'aviation de Metar     EHWO Woensdrecht Air Base
Température
9°C Température
0°C Point de rosée
54% Humidité



Vent
21 KM/H
13 MPH
6 M/S
11 KTS



320°
NO
Conditions actuelles

Clair Clair
Pression 1009.82 (hPa) - 29.82 (inHg)
Visibilité 6 (mile) - 9.7 (km)
Aéroport
Code de l'aéroport EHWO

Emplacement: Woensdrecht Air Base
Distance: 32 (km)

Metar:
EHWO 241725Z AUTO 32011KT 260V010 9999 NCD 09/M00 Q1010 BLU

Temps: 24-04-2024 19:25 CEST